createdAt,value
2022-08-03T00:02:16.681Z,18.00
2022-08-03T00:04:44.451Z,17.98
2022-08-03T00:07:11.928Z,17.99
2022-08-03T00:09:39.682Z,17.94
2022-08-03T00:12:09.150Z,17.96
2022-08-03T00:14:36.496Z,17.97
2022-08-03T00:17:03.779Z,17.93
2022-08-03T00:19:30.942Z,17.96
2022-08-03T00:21:58.767Z,17.90
2022-08-03T00:24:26.385Z,17.87
2022-08-03T00:26:53.307Z,17.87
2022-08-03T00:29:23.011Z,17.79
2022-08-03T00:31:52.305Z,17.77
2022-08-03T00:34:29.891Z,17.72
2022-08-03T00:37:04.125Z,17.67
2022-08-03T00:39:31.336Z,17.66
2022-08-03T00:42:06.867Z,17.64
2022-08-03T00:44:42.406Z,17.65
2022-08-03T00:47:11.698Z,17.64
2022-08-03T00:49:41.021Z,17.57
2022-08-03T00:52:10.688Z,17.50
2022-08-03T00:54:38.878Z,17.49
2022-08-03T00:57:07.962Z,17.46
2022-08-03T00:59:35.481Z,17.43
2022-08-03T01:02:10.316Z,17.41
2022-08-03T01:04:40.769Z,17.40
2022-08-03T01:07:18.420Z,17.37
2022-08-03T01:09:59.188Z,17.35
2022-08-03T01:12:33.516Z,17.38
2022-08-03T01:15:06.437Z,17.36
2022-08-03T01:17:47.244Z,17.31
2022-08-03T01:20:17.988Z,17.27
2022-08-03T01:23:16.311Z,17.21
2022-08-03T01:26:03.048Z,17.18
2022-08-03T01:28:54.930Z,17.16
2022-08-03T01:31:30.673Z,17.14
2022-08-03T01:34:00.490Z,17.11
2022-08-03T01:36:34.227Z,17.09
2022-08-03T01:39:05.769Z,17.05
2022-08-03T01:41:39.257Z,17.02
2022-08-03T01:44:29.016Z,17.00
2022-08-03T01:47:01.578Z,17.02
2022-08-03T01:49:31.510Z,17.01
2022-08-03T01:52:03.912Z,17.00
2022-08-03T01:54:41.125Z,17.02
2022-08-03T01:57:12.664Z,17.09
2022-08-03T01:59:42.253Z,17.01
2022-08-03T02:02:33.672Z,16.98
2022-08-03T02:05:05.109Z,16.94
2022-08-03T02:07:35.890Z,16.92
2022-08-03T02:10:06.520Z,16.92
2022-08-03T02:12:39.192Z,16.89
2022-08-03T02:15:08.139Z,16.84
2022-08-03T02:17:40.334Z,16.82
2022-08-03T02:20:12.651Z,16.78
2022-08-03T02:22:41.751Z,16.78
2022-08-03T02:25:10.856Z,16.77
2022-08-03T02:27:43.992Z,16.74
2022-08-03T02:30:18.113Z,16.79
2022-08-03T02:32:55.962Z,16.74
2022-08-03T02:35:26.681Z,16.72
2022-08-03T02:37:59.242Z,16.71
2022-08-03T02:43:16.584Z,16.66
2022-08-03T02:45:48.452Z,16.67
2022-08-03T02:48:22.004Z,16.59
2022-08-03T02:50:51.966Z,16.59
2022-08-03T02:53:21.719Z,16.55
2022-08-03T02:55:50.544Z,16.55
2022-08-03T02:58:20.315Z,16.58
2022-08-03T03:00:49.138Z,16.55
2022-08-03T03:03:19.807Z,16.54
2022-08-03T03:05:55.413Z,16.51
2022-08-03T03:08:28.479Z,16.53
2022-08-03T03:10:59.622Z,16.55
2022-08-03T03:13:30.852Z,16.58
2022-08-03T03:16:01.447Z,16.57
2022-08-03T03:18:31.988Z,16.51
2022-08-03T03:21:01.494Z,16.44
2022-08-03T03:23:31.561Z,16.43
2022-08-03T03:25:59.258Z,16.41
2022-08-03T03:28:26.986Z,16.35
2022-08-03T03:30:54.299Z,16.36
2022-08-03T03:33:23.121Z,16.34
2022-08-03T03:36:08.541Z,16.34
2022-08-03T03:38:36.505Z,16.37
2022-08-03T03:41:04.548Z,16.35
2022-08-03T03:43:35.818Z,16.32
2022-08-03T03:46:02.995Z,16.25
2022-08-03T03:48:30.233Z,16.24
2022-08-03T03:51:01.287Z,16.24
2022-08-03T03:53:30.223Z,16.21
2022-08-03T03:56:02.580Z,16.17
2022-08-03T03:58:32.166Z,16.22
2022-08-03T04:01:00.189Z,16.18
2022-08-03T04:03:27.516Z,16.21
2022-08-03T04:05:55.025Z,16.20
2022-08-03T04:08:22.400Z,16.19
2022-08-03T04:11:02.986Z,16.24
2022-08-03T04:13:34.599Z,16.22
2022-08-03T04:16:03.429Z,16.23
2022-08-03T04:18:33.417Z,16.25
2022-08-03T04:21:04.152Z,16.23
2022-08-03T04:23:34.529Z,16.24
2022-08-03T04:26:07.802Z,16.27
2022-08-03T04:28:36.304Z,16.32
2022-08-03T04:31:04.790Z,16.33
2022-08-03T04:33:35.018Z,16.38
2022-08-03T04:36:08.196Z,16.43
2022-08-03T04:38:40.813Z,16.52
2022-08-03T04:41:12.165Z,16.49
2022-08-03T04:43:40.339Z,16.52
2022-08-03T04:46:08.402Z,16.58
2022-08-03T04:48:36.286Z,16.59
2022-08-03T04:51:04.461Z,16.63
2022-08-03T04:53:32.331Z,16.73
2022-08-03T04:56:04.946Z,16.83
2022-08-03T04:58:36.262Z,16.91
2022-08-03T05:01:03.974Z,17.00
2022-08-03T05:03:33.672Z,17.10
2022-08-03T05:06:09.471Z,17.16
2022-08-03T05:08:46.228Z,17.25
2022-08-03T05:11:15.284Z,17.33
2022-08-03T05:13:44.247Z,17.36
2022-08-03T05:16:12.616Z,17.42
2022-08-03T05:18:41.707Z,17.49
2022-08-03T05:21:11.456Z,17.59
2022-08-03T05:23:38.671Z,17.66
2022-08-03T05:26:05.680Z,17.73
2022-08-03T05:28:33.022Z,17.77
2022-08-03T05:31:02.419Z,17.83
2022-08-03T05:33:29.867Z,17.87
2022-08-03T05:36:03.174Z,17.95
2022-08-03T05:38:35.113Z,18.02
2022-08-03T05:41:21.061Z,18.06
2022-08-03T05:43:51.400Z,18.15
2022-08-03T05:46:20.527Z,18.17
2022-08-03T05:48:47.728Z,18.21
2022-08-03T05:51:16.848Z,18.29
2022-08-03T05:53:44.920Z,18.35
2022-08-03T05:56:14.084Z,18.42
2022-08-03T05:58:43.363Z,18.50
2022-08-03T06:01:11.009Z,18.55
2022-08-03T06:03:39.665Z,18.63
2022-08-03T06:06:07.051Z,18.68
2022-08-03T06:08:34.568Z,18.74
2022-08-03T06:11:01.970Z,18.78
2022-08-03T06:13:29.221Z,18.83
2022-08-03T06:15:56.443Z,18.93
2022-08-03T06:18:25.241Z,18.99
2022-08-03T06:20:55.458Z,19.05
2022-08-03T06:23:28.670Z,19.08
2022-08-03T06:26:13.533Z,19.17
2022-08-03T06:28:52.733Z,19.24
2022-08-03T06:31:21.601Z,19.28
2022-08-03T06:34:34.145Z,19.35
2022-08-03T06:36:40.170Z,19.43
2022-08-03T06:39:08.043Z,19.51
2022-08-03T06:41:38.156Z,19.57
2022-08-03T06:44:13.184Z,19.66
2022-08-03T06:46:40.783Z,19.73
2022-08-03T06:49:10.582Z,19.82
2022-08-03T06:52:05.468Z,19.88
2022-08-03T06:54:32.586Z,19.96
2022-08-03T06:57:00.796Z,20.04
2022-08-03T07:00:10.409Z,20.10
2022-08-03T07:02:19.146Z,20.17
2022-08-03T07:04:47.515Z,20.25
2022-08-03T07:07:19.569Z,20.33
2022-08-03T07:09:56.364Z,20.36
2022-08-03T07:12:27.300Z,20.44
2022-08-03T07:15:00.012Z,20.45
2022-08-03T07:17:29.117Z,20.50
2022-08-03T07:19:58.550Z,20.56
2022-08-03T07:22:30.546Z,20.70
2022-08-03T07:25:01.623Z,20.84
2022-08-03T07:27:29.123Z,20.92
2022-08-03T07:29:57.594Z,21.00
2022-08-03T07:32:28.635Z,21.11
2022-08-03T07:35:00.505Z,21.20
2022-08-03T07:37:33.044Z,21.27
2022-08-03T07:40:05.361Z,21.34
2022-08-03T07:42:33.083Z,21.45
2022-08-03T07:45:00.754Z,21.51
2022-08-03T07:47:35.269Z,21.49
2022-08-03T07:50:09.173Z,21.59
2022-08-03T07:52:40.623Z,21.68
2022-08-03T07:55:12.522Z,21.82
2022-08-03T07:57:40.245Z,21.90
2022-08-03T08:00:14.873Z,21.91
2022-08-03T08:02:43.236Z,21.99
2022-08-03T08:05:13.099Z,22.07
2022-08-03T08:07:43.502Z,22.13
2022-08-03T08:10:11.519Z,22.20
2022-08-03T08:12:43.003Z,22.29
2022-08-03T08:15:11.481Z,22.18
2022-08-03T08:17:43.373Z,22.32
2022-08-03T08:20:13.240Z,22.42
2022-08-03T08:22:43.980Z,22.47
2022-08-03T08:25:11.818Z,22.59
2022-08-03T08:28:29.190Z,22.68
2022-08-03T08:30:33.918Z,22.75
2022-08-03T08:33:03.286Z,22.83
2022-08-03T08:35:32.665Z,22.95
2022-08-03T08:38:05.558Z,23.08
2022-08-03T08:40:36.943Z,23.15
2022-08-03T08:43:04.389Z,23.15
2022-08-03T08:45:31.905Z,23.21
2022-08-03T08:48:07.939Z,23.25
2022-08-03T08:50:38.303Z,23.28
2022-08-03T08:53:18.166Z,23.36
2022-08-03T08:55:59.665Z,23.48
2022-08-03T08:58:30.875Z,23.58
2022-08-03T09:00:59.441Z,23.68
2022-08-03T09:03:30.251Z,23.76
2022-08-03T09:06:01.139Z,23.87
2022-08-03T09:08:34.557Z,23.90
2022-08-03T09:11:02.122Z,23.97
2022-08-03T09:13:30.165Z,24.04
2022-08-03T09:16:13.199Z,24.16
2022-08-03T09:18:41.958Z,24.26
2022-08-03T09:21:33.572Z,24.22
2022-08-03T09:24:13.127Z,24.26
2022-08-03T09:26:53.782Z,24.34
2022-08-03T09:29:22.362Z,24.37
2022-08-03T09:31:49.586Z,24.39
2022-08-03T09:34:18.864Z,24.40
2022-08-03T09:36:47.573Z,24.48
2022-08-03T09:39:19.502Z,24.52
2022-08-03T09:42:14.967Z,24.54
2022-08-03T09:44:44.606Z,24.57
2022-08-03T09:47:13.762Z,24.61
2022-08-03T09:49:42.594Z,24.74
2022-08-03T09:52:32.933Z,24.85
2022-08-03T09:56:32.818Z,24.96
2022-08-03T09:58:05.486Z,24.98
2022-08-03T10:00:32.948Z,24.98
2022-08-03T10:03:04.806Z,24.99
2022-08-03T10:05:33.310Z,25.13
2022-08-03T10:08:01.308Z,25.19
2022-08-03T10:10:45.922Z,25.22
2022-08-03T10:13:15.377Z,25.30
2022-08-03T10:16:22.878Z,25.32
2022-08-03T10:18:32.460Z,25.50
2022-08-03T10:21:04.022Z,25.48
2022-08-03T10:23:35.496Z,25.56
2022-08-03T10:26:08.743Z,25.62
2022-08-03T10:28:45.034Z,25.71
2022-08-03T10:31:14.313Z,25.79
2022-08-03T10:34:05.296Z,25.92
2022-08-03T10:36:33.854Z,26.01
2022-08-03T10:39:03.332Z,25.96
2022-08-03T10:41:48.219Z,26.05
2022-08-03T10:44:26.254Z,26.14
2022-08-03T10:46:54.632Z,26.20
2022-08-03T10:49:35.354Z,26.06
2022-08-03T10:52:13.896Z,25.91
2022-08-03T10:54:51.976Z,25.88
2022-08-03T10:57:56.212Z,26.03
2022-08-03T11:00:29.157Z,26.18
2022-08-03T11:03:08.389Z,26.17
2022-08-03T11:05:39.319Z,26.21
2022-08-03T11:11:41.157Z,26.39
2022-08-03T11:14:12.438Z,26.47
2022-08-03T11:16:42.015Z,26.57
2022-08-03T11:19:11.521Z,26.66
2022-08-03T11:22:04.566Z,26.71
2022-08-03T11:24:59.980Z,26.72
2022-08-03T11:27:29.056Z,26.82
2022-08-03T11:29:59.988Z,26.95
2022-08-03T11:32:58.711Z,27.05
2022-08-03T11:35:28.122Z,27.15
2022-08-03T11:38:10.401Z,27.25
2022-08-03T11:40:40.719Z,27.28
2022-08-03T11:43:09.290Z,27.36
2022-08-03T11:45:38.713Z,27.32
2022-08-03T11:48:18.434Z,27.21
2022-08-03T11:50:45.922Z,27.20
2022-08-03T11:53:19.802Z,27.21
2022-08-03T11:55:52.727Z,27.21
2022-08-03T11:59:01.043Z,27.23
2022-08-03T12:01:11.869Z,27.32
2022-08-03T12:03:40.070Z,27.35
2022-08-03T12:06:10.674Z,27.48
2022-08-03T12:08:39.220Z,27.55
2022-08-03T12:11:09.288Z,27.61
2022-08-03T12:14:44.124Z,27.65
2022-08-03T12:16:31.494Z,27.72
2022-08-03T12:19:01.906Z,27.78
2022-08-03T12:21:31.552Z,27.77
2022-08-03T12:24:00.891Z,27.82
2022-08-03T12:26:29.010Z,27.91
2022-08-03T12:28:59.041Z,27.97
2022-08-03T12:31:26.857Z,28.04
2022-08-03T12:34:02.151Z,28.19
2022-08-03T12:36:31.941Z,28.32
2022-08-03T12:39:01.934Z,28.45
2022-08-03T12:41:31.619Z,28.59
2022-08-03T12:43:59.831Z,28.68
2022-08-03T12:46:32.140Z,28.66
2022-08-03T12:49:07.419Z,28.66
2022-08-03T12:51:38.429Z,28.53
2022-08-03T12:54:07.284Z,28.51
2022-08-03T12:56:35.291Z,28.56
2022-08-03T12:59:32.178Z,28.67
2022-08-03T13:02:04.676Z,28.73
2022-08-03T13:04:41.933Z,28.77
2022-08-03T13:07:14.146Z,28.81
2022-08-03T13:09:45.728Z,28.83
2022-08-03T13:12:16.151Z,28.70
2022-08-03T13:14:44.944Z,28.72
2022-08-03T13:17:13.143Z,28.63
2022-08-03T13:19:44.411Z,28.64
2022-08-03T13:22:12.976Z,28.62
2022-08-03T13:24:41.219Z,28.70
2022-08-03T13:28:01.661Z,28.75
2022-08-03T13:30:02.530Z,28.83
2022-08-03T13:32:32.750Z,28.93
2022-08-03T13:35:07.096Z,29.02
2022-08-03T13:37:35.179Z,28.89
2022-08-03T13:40:04.771Z,28.91
2022-08-03T13:42:35.203Z,28.93
2022-08-03T13:45:03.317Z,28.97
2022-08-03T13:47:31.129Z,28.97
2022-08-03T13:50:01.538Z,28.98
2022-08-03T13:52:46.476Z,29.05
2022-08-03T13:55:13.836Z,28.94
2022-08-03T13:58:06.292Z,28.99
2022-08-03T14:00:29.746Z,29.05
2022-08-03T14:03:12.583Z,29.11
2022-08-03T14:05:42.392Z,29.16
2022-08-03T14:08:13.044Z,29.23
2022-08-03T14:10:42.722Z,29.23
2022-08-03T14:13:12.782Z,29.28
2022-08-03T14:15:51.192Z,29.34
2022-08-03T14:18:28.536Z,29.34
2022-08-03T14:21:04.819Z,29.35
2022-08-03T14:23:36.159Z,29.38
2022-08-03T14:26:03.688Z,29.36
2022-08-03T14:28:31.193Z,29.43
2022-08-03T14:30:58.380Z,29.50
2022-08-03T14:33:25.886Z,29.53
2022-08-03T14:35:53.689Z,29.59
2022-08-03T14:38:23.192Z,29.59
2022-08-03T14:40:52.415Z,29.61
2022-08-03T14:43:20.178Z,29.62
2022-08-03T14:45:49.748Z,29.54
2022-08-03T14:50:28.572Z,29.52
2022-08-03T14:51:06.264Z,29.50
2022-08-03T14:53:34.720Z,29.54
2022-08-03T14:56:10.028Z,29.53
2022-08-03T14:58:41.437Z,29.49
2022-08-03T15:02:02.196Z,29.55
2022-08-03T15:03:56.967Z,29.52
2022-08-03T15:06:24.220Z,29.51
2022-08-03T15:09:13.940Z,29.54
2022-08-03T15:11:40.579Z,29.52
2022-08-03T15:14:09.521Z,29.46
2022-08-03T15:16:37.094Z,29.48
2022-08-03T15:20:00.425Z,29.41
2022-08-03T15:21:54.113Z,29.33
2022-08-03T15:24:21.533Z,29.31
2022-08-03T15:26:51.397Z,29.32
2022-08-03T15:30:09.039Z,29.31
2022-08-03T15:32:09.605Z,29.26
2022-08-03T15:34:37.616Z,29.14
2022-08-03T15:37:15.106Z,29.07
2022-08-03T15:39:58.844Z,29.08
2022-08-03T15:42:33.933Z,29.03
2022-08-03T15:45:01.902Z,29.00
2022-08-03T15:47:29.746Z,28.95
2022-08-03T15:49:57.680Z,28.93
2022-08-03T15:52:26.105Z,28.84
2022-08-03T15:59:03.757Z,28.83
2022-08-03T16:00:33.675Z,28.82
2022-08-03T16:03:02.595Z,28.76
2022-08-03T16:05:30.396Z,28.67
2022-08-03T16:08:03.642Z,28.53
2022-08-03T16:10:32.824Z,28.49
2022-08-03T16:13:02.852Z,28.38
2022-08-03T16:15:30.925Z,28.34
2022-08-03T16:18:06.872Z,28.28
2022-08-03T16:20:35.362Z,28.20
2022-08-03T16:23:10.621Z,28.15
2022-08-03T16:25:42.561Z,28.19
2022-08-03T16:28:16.028Z,28.24
2022-08-03T16:30:45.909Z,28.20
2022-08-03T16:33:17.788Z,28.10
2022-08-03T16:35:46.731Z,28.07
2022-08-03T16:38:18.544Z,28.06
2022-08-03T16:40:48.315Z,28.02
2022-08-03T16:43:19.477Z,27.97
2022-08-03T16:45:48.899Z,27.96
2022-08-03T16:48:17.124Z,27.92
2022-08-03T16:50:44.934Z,27.86
2022-08-03T16:53:16.310Z,27.84
2022-08-03T16:55:52.094Z,27.77
2022-08-03T16:58:41.285Z,27.78
2022-08-03T17:01:24.330Z,27.80
2022-08-03T17:04:01.369Z,27.84
2022-08-03T17:06:35.727Z,27.88
2022-08-03T17:09:08.639Z,27.73
2022-08-03T17:11:44.108Z,27.65
2022-08-03T17:14:21.615Z,27.58
2022-08-03T17:16:52.868Z,27.49
2022-08-03T17:19:24.626Z,27.49
2022-08-03T17:21:58.935Z,27.50
2022-08-03T17:24:32.421Z,27.43
2022-08-03T17:28:48.901Z,27.34
2022-08-03T17:30:46.730Z,27.30
2022-08-03T17:33:20.452Z,27.30
2022-08-03T17:35:47.982Z,27.30
2022-08-03T17:38:22.844Z,27.25
2022-08-03T17:40:52.221Z,27.19
2022-08-03T17:44:13.581Z,27.13
2022-08-03T17:46:16.862Z,27.01
2022-08-03T17:48:47.248Z,26.93
2022-08-03T17:51:23.658Z,26.87
2022-08-03T17:54:00.751Z,26.85
2022-08-03T17:56:45.939Z,26.80
2022-08-03T17:59:51.782Z,26.69
2022-08-03T18:02:41.207Z,26.54
2022-08-03T18:05:22.016Z,26.40
2022-08-03T18:08:01.554Z,26.24
2022-08-03T18:10:35.614Z,26.05
2022-08-03T18:13:11.148Z,25.92
2022-08-03T18:15:44.144Z,25.72
2022-08-03T18:18:16.927Z,25.57
2022-08-03T18:21:06.541Z,25.43
2022-08-03T18:23:39.368Z,25.23
2022-08-03T18:26:12.037Z,25.09
2022-08-03T18:28:40.824Z,25.03
2022-08-03T18:31:11.600Z,24.94
2022-08-03T18:34:17.133Z,24.79
2022-08-03T18:36:34.346Z,24.66
2022-08-03T18:39:05.334Z,24.50
2022-08-03T18:44:37.520Z,24.25
2022-08-03T18:47:25.283Z,24.13
2022-08-03T18:50:12.925Z,23.99
2022-08-03T18:55:52.249Z,23.78
2022-08-03T18:58:35.740Z,23.66
2022-08-03T19:02:00.163Z,23.59
2022-08-03T19:04:12.032Z,23.48
2022-08-03T19:06:44.892Z,23.43
2022-08-03T19:09:24.447Z,23.33
2022-08-03T19:12:14.356Z,23.24
2022-08-03T19:14:50.065Z,23.18
2022-08-03T19:17:21.191Z,23.14
2022-08-03T19:19:52.769Z,23.09
2022-08-03T19:22:23.083Z,23.00
2022-08-03T19:24:55.289Z,22.90
2022-08-03T19:27:26.952Z,22.81
2022-08-03T19:32:48.184Z,22.65
2022-08-03T19:35:19.026Z,22.57
2022-08-03T19:37:51.825Z,22.49
2022-08-03T19:40:20.447Z,22.46
2022-08-03T19:42:58.169Z,22.43
2022-08-03T19:45:52.664Z,22.37
2022-08-03T19:48:26.887Z,22.28
2022-08-03T19:50:59.095Z,22.17
2022-08-03T19:53:35.175Z,22.13
2022-08-03T19:56:06.175Z,22.09
2022-08-03T19:58:36.216Z,22.02
2022-08-03T20:01:21.179Z,21.94
2022-08-03T20:03:50.652Z,21.90
2022-08-03T20:06:20.646Z,21.87
2022-08-03T20:08:51.724Z,21.81
2022-08-03T20:11:20.905Z,21.75
2022-08-03T20:13:58.214Z,21.71
2022-08-03T20:16:26.837Z,21.67
2022-08-03T20:18:54.403Z,21.63
2022-08-03T20:21:24.968Z,21.58
2022-08-03T20:24:03.326Z,21.50
2022-08-03T20:26:53.395Z,21.31
2022-08-03T20:30:05.284Z,21.22
2022-08-03T20:32:19.177Z,21.14
2022-08-03T20:34:51.866Z,21.14
2022-08-03T20:37:20.171Z,21.10
2022-08-03T20:39:49.856Z,21.06
2022-08-03T20:42:21.262Z,21.02
2022-08-03T20:45:04.779Z,20.97
2022-08-03T20:47:35.671Z,20.96
2022-08-03T20:50:04.689Z,20.92
2022-08-03T20:52:35.197Z,20.87
2022-08-03T20:55:20.391Z,20.82
2022-08-03T20:58:07.206Z,20.75
2022-08-03T21:00:35.129Z,20.77
2022-08-03T21:03:02.219Z,20.73
2022-08-03T21:05:48.250Z,20.71
2022-08-03T21:08:21.476Z,20.66
2022-08-03T21:10:56.444Z,20.66
2022-08-03T21:13:05.867Z,24.38
2022-08-03T21:13:08.995Z,22.72
2022-08-03T21:13:09.522Z,23.94
2022-08-03T21:13:29.631Z,20.67
2022-08-03T21:16:12.564Z,20.71
2022-08-03T21:18:45.286Z,20.73
2022-08-03T21:21:17.049Z,20.64
2022-08-03T21:23:48.218Z,20.72
2022-08-03T21:26:19.979Z,20.67
2022-08-03T21:28:48.470Z,20.66
2022-08-03T21:31:24.826Z,20.67
2022-08-03T21:33:55.647Z,20.70
2022-08-03T21:36:23.250Z,20.67
2022-08-03T21:38:55.842Z,20.60
2022-08-03T21:41:27.643Z,20.65
2022-08-03T21:43:57.239Z,20.75
2022-08-03T21:46:26.399Z,20.76
2022-08-03T21:50:02.734Z,20.74
2022-08-03T21:51:50.220Z,20.62
2022-08-03T21:54:20.302Z,20.51
2022-08-03T21:56:51.808Z,20.45
2022-08-03T21:59:23.612Z,20.43
2022-08-03T22:01:55.433Z,20.43
2022-08-03T22:04:53.880Z,20.41
2022-08-03T22:07:15.336Z,20.39
2022-08-03T22:09:51.054Z,20.35
2022-08-03T22:12:25.420Z,20.32
2022-08-03T22:15:01.356Z,20.24
2022-08-03T22:17:55.146Z,20.18
2022-08-03T22:20:19.668Z,20.15
2022-08-03T22:22:55.208Z,20.12
2022-08-03T22:25:28.151Z,20.06
2022-08-03T22:27:59.515Z,20.02
2022-08-03T22:30:26.986Z,20.00
2022-08-03T22:32:55.947Z,19.96
2022-08-03T22:35:25.606Z,19.87
2022-08-03T22:37:57.931Z,19.84
2022-08-03T22:40:26.122Z,19.83
2022-08-03T22:42:54.885Z,19.82
2022-08-03T22:46:07.219Z,19.73
2022-08-03T22:48:11.667Z,19.70
2022-08-03T22:50:39.832Z,19.67
2022-08-03T22:53:07.826Z,19.61
2022-08-03T22:55:37.743Z,19.54
2022-08-03T22:58:04.937Z,19.51
2022-08-03T23:00:35.826Z,19.50
2022-08-03T23:03:06.661Z,19.48
2022-08-03T23:06:01.825Z,19.46
2022-08-03T23:08:26.088Z,19.38
2022-08-03T23:10:58.397Z,19.34
2022-08-03T23:13:30.053Z,19.30
2022-08-03T23:16:01.483Z,19.24
2022-08-03T23:18:34.106Z,19.19
2022-08-03T23:21:11.693Z,19.18
2022-08-03T23:23:44.313Z,19.15
2022-08-03T23:26:13.602Z,19.13
2022-08-03T23:28:45.906Z,19.11
2022-08-03T23:31:20.405Z,19.09
2022-08-03T23:33:48.825Z,19.10
2022-08-03T23:36:30.984Z,19.06
2022-08-03T23:39:03.028Z,18.97
2022-08-03T23:41:40.306Z,18.90
2022-08-03T23:44:08.147Z,18.86
2022-08-03T23:46:39.920Z,18.83
2022-08-03T23:49:07.017Z,18.80
2022-08-03T23:51:46.700Z,18.75
2022-08-03T23:54:24.198Z,18.70
2022-08-03T23:56:58.970Z,18.65
2022-08-03T23:59:32.658Z,18.61
